Sunday, November 19, 2017, 11:19 PM EST
Back to Local

KIAG, Niagara Falls International Airport

Location: Niagara Falls, NY, United States Lat: 43.117
Local Time: 11:19 PM EST ( 4:19 GMT) Lon: -78.933
Time Zone: US/Eastern Elev: 583 ft

Show me the last for .
Show Decoded

2017-11-19 23:04 METAR KIAG 200404Z AUTO 26013KT 7SM -SN BKN041 BKN048 OVC060 01/M04 A2985 RMK
                 AO2 UPB0358E01SNE0358B01 P0000 T00061039 $ =
2017-11-19 22:53 METAR KIAG 200353Z 26012KT 6SM -SN FEW036 SCT043 OVC060 01/M04 A2985 RMK AO2
                 SLP121 P0003 T00061039 $ =
2017-11-19 22:36 METAR KIAG 200336Z 26012KT 6SM -SN SCT011 BKN032 OVC065 00/M03 A2985 RMK AO2
                 P0003 T00001033 $ =
2017-11-19 22:23 METAR KIAG 200323Z 26010KT 6SM -SN BKN008 OVC024 00/M04 A2985 RMK AO2 P0003
                 T00001039 $ =
2017-11-19 22:18 METAR KIAG 200318Z 27009KT 1/2SM SN BKN010 OVC024 00/M04 A2985 RMK AO2 P0003
                 T00001039 RVRNO $ =
2017-11-19 22:14 METAR KIAG 200314Z 27011KT 2SM SN BKN012 OVC024 00/M04 A2985 RMK AO2 P0002
                 T00001039 $ =
2017-11-19 22:00 METAR KIAG 200300Z 27011KT 2SM SN BKN024 BKN031 OVC042 01/M05 A2985 RMK AO2
                 P0001 T00061050 $ =
2017-11-19 21:53 METAR KIAG 200253Z 27011KT 8SM -SN SCT026 BKN032 OVC042 01/M05 A2985 RMK AO2
                 SNB43 SLP119 P0000 60000 T00111050 51018 $ =
2017-11-19 20:53 METAR KIAG 200153Z 29013KT 10SM FEW033 BKN041 OVC048 01/M06 A2983 RMK AO2 SLP113
                 T00111056 $ =
2017-11-19 19:53 METAR KIAG 200053Z 31012KT 10SM FEW032 SCT041 OVC065 01/M06 A2981 RMK AO2 SLP107
                 T00111061 $ =
2017-11-19 18:53 METAR KIAG 192353Z 29013KT 10SM SCT035 OVC080 01/M05 A2979 RMK AO2 SLP100 60001
                 T00111050 10050 20011 51028 $ =
2017-11-19 17:53 METAR KIAG 192253Z 30017G30KT 10SM SCT035 OVC080 02/M04 A2976 RMK AO2 PK WND
                 30030/2244 SNE08 SLP091 P0000 T00171044 $ =
2017-11-19 16:53 METAR KIAG 192153Z 30016G23KT 7SM -SN BKN023 BKN035 OVC044 02/M03 A2974 RMK AO2
                 PK WND 29027/2110 SNB2059 SLP082 P0000 T00221028 $ =
2017-11-19 16:38 METAR KIAG 192138Z COR 30018G27KT 7SM -SN BKN025 BKN035 OVC046 02/M03 A2973 RMK
                 AO2 PK WND 29027/2110 SNB2059 P0000 T00221028 RVRNO $ =
2017-11-19 15:53 METAR KIAG 192053Z 28017G25KT 10SM SCT030 BKN045 OVC070 03/M02 A2970 RMK AO2 PK
                 WND 29033/2013 RAB03E11SNB11E33 SLP071 P0001 60001 T00331017 53019 $ =
2017-11-19 15:35 METAR KIAG 192035Z 28015G21KT 9SM FEW015 BKN050 OVC070 03/M02 A2970 RMK AO2 PK
                 WND 29033/2013 RAB03E11SNB11E33 P0001 T00281017 $ =
2017-11-19 15:25 METAR KIAG 192025Z 29014G23KT 2SM -SN FEW014 BKN030 OVC055 02/M02 A2969 RMK AO2
                 PK WND 29033/2013 RAB03E11SNB11 P0001 T00221022 $ =
2017-11-19 15:21 METAR KIAG 192021Z 30019G33KT 2SM -SN FEW014 BKN027 OVC049 03/M02 A2969 RMK AO2
                 PK WND 29033/2013 RAB03E11SNB11 PRESRR P0000 T00281022 $ =
2017-11-19 14:53 METAR KIAG 191953Z 29020G24KT 10SM SCT030 BKN035 OVC070 04/M02 A2967 RMK AO2
                 RAB1857E29 SLP057 P0000 T00441022 $ =
2017-11-19 13:53 METAR KIAG 191853Z 30013KT 10SM FEW029 BKN044 OVC060 05/M02 A2965 RMK AO2
                 RAB06E17 SLP051 P0000 T00501017 $ =
2017-11-19 12:53 METAR KIAG 191753Z 29013KT 10SM FEW025 BKN039 OVC050 04/M01 A2965 RMK AO2 SLP049
                 60000 T00441011 10056 20033 51011 $ =
2017-11-19 11:53 METAR KIAG 191653Z 29015G23KT 10SM FEW027 FEW033 OVC042 04/M02 A2965 RMK AO2 PK
                 WND 28026/1617 SLP047 T00441017 $ =
2017-11-19 10:53 METAR KIAG 191553Z 29017G27KT 10SM SCT033 OVC050 05/M02 A2965 RMK AO2 PK WND
                 29027/1553 SLP049 T00501022 $ =
2017-11-19 09:53 METAR KIAG 191453Z 28019G24KT 10SM OVC049 04/M02 A2962 RMK AO2 SLP037 60000
                 T00441022 51022 $ =
2017-11-19 08:53 METAR KIAG 191353Z 29013G21KT 10SM BKN030 OVC035 04/M01 A2960 RMK AO2 SLP030
                 T00391011 $ =
2017-11-19 08:50 METAR KIAG 191350Z 29015G21KT 10SM BKN030 OVC035 04/M01 A2959 RMK AO2 $ =
2017-11-19 08:36 METAR KIAG 191336Z 30011KT 10SM BKN029 OVC038 04/M01 A2959 RMK AO2 T00391011 $ =
2017-11-19 07:53 METAR KIAG 191253Z 30018G25KT 10SM FEW025 SCT033 OVC040 03/M01 A2955 RMK AO2 PK
                 WND 32026/1157 RAB1155E40 SLP015 P0000 T00331011 $ =
2017-11-19 07:51 METAR KIAG 191251Z 30014KT 10SM FEW025 SCT033 OVC039 03/M01 A2955 RMK AO2 PK WND
                 32026/1157 RAB1155E40 P0000 $ =
2017-11-19 06:53 METAR KIAG 191153Z 32017G27KT 10SM BKN025 OVC030 04/M01 A2951 RMK AO2 PK WND
                 31029/1135 SLP001 60034 70092 T00391011 10061 20017 51064 $ =
2017-11-19 05:53 METAR KIAG 191053Z AUTO 30016G24KT 10SM BKN023 OVC029 04/01 A2946 RMK AO2 PK WND
                 31028/1016 RAB01E51SNE01 SLP984 P0000 T00390006 $ =
2017-11-19 04:53 METAR KIAG 190953Z AUTO 32018G32KT 3SM -SN BR SCT007 OVC015 02/00 A2940 RMK AO2
                 PK WND 32033/0930 SLP964 P0006 T00220000 $ =
2017-11-19 04:50 METAR KIAG 190950Z AUTO 32020G32KT 3SM -SN BR SCT007 OVC013 02/00 A2939 RMK AO2
                 PK WND 32033/0930 P0006 $ =
2017-11-19 04:44 METAR KIAG 190944Z AUTO 32025G32KT 2SM -SN BKN007 OVC013 02/M01 A2939 RMK AO2 PK
                 WND 32033/0930 PRESRR P0005 T00221006 $ =
2017-11-19 04:38 METAR KIAG 190938Z AUTO 32018G33KT 1 1/4SM -SN BR OVC009 02/M01 A2938 RMK AO2 PK
                 WND 32033/0930 P0005 T00171006 $ =
2017-11-19 04:29 METAR KIAG 190929Z AUTO 32023G31KT 1SM -SN BR OVC007 02/M01 A2937 RMK AO2 PK WND
                 31032/0919 PRESRR P0004 T00171006 RVRNO $ =
2017-11-19 04:20 METAR KIAG 190920Z AUTO 32024G32KT 1 1/4SM -SN BR BKN009 OVC014 02/M01 A2936 RMK
                 AO2 PK WND 31032/0919 PRESRR P0003 T00171006 $ =
2017-11-19 03:53 METAR KIAG 190853Z AUTO 31021G27KT 2 1/2SM -SN BR OVC007 02/00 A2932 RMK AO2 PK
                 WND 32029/0827 RAE0759SNB0759 PRESRR SLP937 P0009 60028 T00220000 51047 $ =
2017-11-19 03:48 METAR KIAG 190848Z AUTO 31020G25KT 3SM -SN BR OVC007 02/00 A2931 RMK AO2 PK WND
                 32029/0827 RAE0759SNB0759 P0008 $ =
2017-11-19 03:40 METAR KIAG 190840Z AUTO 32015G27KT 1 3/4SM -SN OVC008 02/M01 A2930 RMK AO2 PK
                 WND 32029/0827 RAE0759SNB0759 P0007 T00221006 $ =
2017-11-19 03:23 METAR KIAG 190823Z AUTO 32018G29KT 1 1/4SM -SN BR BKN007 OVC011 02/M01 A2929 RMK
                 AO2 PK WND 31029/0819 RAE0759SNB0759 PRESRR P0005 T00171006 $ =
2017-11-19 03:08 METAR KIAG 190808Z AUTO 31020G28KT 1 3/4SM -SN BKN007 OVC013 02/M01 A2927 RMK
                 AO2 PK WND 32029/0755 RAE0759SNB0759 P0002 T00221006 $ =
2017-11-19 02:53 METAR KIAG 190753Z AUTO 31019G26KT 6SM -RA BR BKN007 OVC016 03/01 A2925 RMK AO2
                 PK WND 32032/0655 SLP914 P0012 T00280006 $ =
2017-11-19 01:53 METAR KIAG 190653Z AUTO 31022G28KT 5SM RA BR OVC008 04/02 A2918 RMK AO2 PK WND
                 35038/0601 CIG 006V011 SLP888 P0007 T00440022 $ =
2017-11-19 01:09 METAR KIAG 190609Z 33022G38KT 6SM -RA BR OVC007 06/03 A2911 RMK AO2 PK WND
                 35038/0601 CIG 005V011 P0001 T00560033 $ =
2017-11-19 01:00 METAR KIAG 190600Z 34024G34KT 4SM -RA BR OVC005 06/03 A2910 RMK AO2 PK WND
                 35034/0600 CIG 004V008 P0001 T00560033 $ =
2017-11-19 00:53 METAR KIAG 190553Z 34023G32KT 2 1/2SM -RA OVC005 06/03 A2910 RMK AO2 PK WND
                 35032/0544 CIG 004V009 SLP859 P0003 60029 T00610033 10094 20061 55001 $ =
2017-11-19 00:46 METAR KIAG 190546Z 34022G32KT 2 1/2SM +RA BKN004 OVC009 06/03 A2910 RMK AO2 PK
                 WND 35032/0544 CIG 004V007 P0003 T00610033 $ =
2017-11-19 00:35 METAR KIAG 190535Z 33021G30KT 3SM -RA OVC004 07/04 A2910 RMK AO2 PK WND
                 33030/0531 CIG 003V008 PRESRR P0001 T00670039 $ =
2017-11-19 00:03 METAR KIAG 190503Z 32010KT 5SM -RA BR BKN003 OVC011 09/07 A2908 RMK AO2 P0000
                 T00890067 $ =
2017-11-18 23:53 METAR KIAG 190453Z 33010KT 4SM -RA BR BKN004 OVC011 09/07 A2907 RMK AO2 SLP850
                 P0005 T00890067 401000000 $ =
2017-11-18 23:27 METAR KIAG 190427Z 32007KT 3SM -RA BR OVC004 09/07 A2907 RMK AO2 P0003 T00890067
                 $ =

Support USWX by starting your Amazon purchase here.